createdAt,value
2022-08-05T00:00:53.602Z,60.81
2022-08-05T00:03:21.541Z,60.33
2022-08-05T00:06:05.729Z,60.29
2022-08-05T00:08:36.325Z,60.64
2022-08-05T00:11:07.629Z,60.68
2022-08-05T00:13:53.084Z,60.83
2022-08-05T00:16:36.199Z,61.35
2022-08-05T00:19:08.180Z,61.75
2022-08-05T00:21:35.648Z,61.58
2022-08-05T00:24:10.639Z,61.99
2022-08-05T00:26:37.790Z,61.92
2022-08-05T00:29:04.345Z,62.17
2022-08-05T00:31:53.658Z,62.08
2022-08-05T00:34:54.019Z,62.86
2022-08-05T00:37:11.791Z,63.62
2022-08-05T00:39:41.512Z,64.20
2022-08-05T00:42:11.226Z,64.37
2022-08-05T00:44:57.812Z,64.44
2022-08-05T00:47:24.369Z,64.95
2022-08-05T00:49:52.282Z,64.80
2022-08-05T00:52:18.977Z,64.91
2022-08-05T00:54:55.998Z,64.63
2022-08-05T00:57:25.160Z,64.73
2022-08-05T00:59:58.098Z,65.37
2022-08-05T01:02:24.862Z,65.98
2022-08-05T01:04:52.740Z,65.73
2022-08-05T01:07:19.332Z,66.02
2022-08-05T01:09:45.930Z,65.82
2022-08-05T01:12:23.590Z,65.42
2022-08-05T01:14:57.553Z,65.55
2022-08-05T01:17:29.684Z,65.58
2022-08-05T01:20:13.247Z,65.87
2022-08-05T01:23:14.573Z,65.48
2022-08-05T01:25:54.007Z,65.37
2022-08-05T01:28:35.623Z,65.55
2022-08-05T01:31:09.232Z,65.70
2022-08-05T01:33:48.908Z,65.40
2022-08-05T01:36:18.672Z,65.66
2022-08-05T01:38:49.913Z,66.08
2022-08-05T01:41:21.765Z,66.20
2022-08-05T01:43:51.979Z,66.47
2022-08-05T01:46:42.376Z,66.34
2022-08-05T01:49:22.617Z,66.64
2022-08-05T01:51:55.402Z,66.43
2022-08-05T01:54:25.729Z,67.07
2022-08-05T01:58:10.810Z,66.88
2022-08-05T01:59:47.112Z,66.73
2022-08-05T02:02:15.887Z,66.21
2022-08-05T02:04:46.248Z,66.97
2022-08-05T02:07:22.049Z,66.81
2022-08-05T02:09:49.538Z,67.38
2022-08-05T02:12:25.502Z,67.32
2022-08-05T02:15:03.441Z,67.48
2022-08-05T02:18:31.381Z,66.95
2022-08-05T02:20:24.817Z,67.31
2022-08-05T02:22:58.153Z,67.56
2022-08-05T02:25:33.031Z,67.55
2022-08-05T02:28:01.701Z,67.96
2022-08-05T02:30:36.633Z,68.17
2022-08-05T02:33:06.723Z,68.49
2022-08-05T02:35:38.130Z,68.09
2022-08-05T02:38:19.326Z,68.02
2022-08-05T02:40:47.531Z,67.93
2022-08-05T02:43:16.626Z,68.05
2022-08-05T02:45:51.587Z,68.34
2022-08-05T02:48:21.187Z,68.52
2022-08-05T02:50:58.574Z,69.29
2022-08-05T02:53:25.576Z,69.80
2022-08-05T02:56:00.247Z,69.67
2022-08-05T02:58:30.322Z,70.14
2022-08-05T03:01:01.167Z,69.61
2022-08-05T03:03:34.026Z,69.87
2022-08-05T03:06:55.219Z,69.30
2022-08-05T03:08:52.434Z,69.96
2022-08-05T03:11:57.390Z,70.44
2022-08-05T03:14:08.104Z,70.85
2022-08-05T03:16:36.637Z,70.64
2022-08-05T03:19:12.918Z,70.01
2022-08-05T03:21:48.801Z,70.20
2022-08-05T03:24:17.460Z,70.17
2022-08-05T03:26:49.289Z,70.64
2022-08-05T03:29:17.367Z,70.46
2022-08-05T03:31:57.316Z,70.71
2022-08-05T03:34:28.525Z,71.48
2022-08-05T03:36:55.525Z,71.60
2022-08-05T03:39:27.219Z,71.26
2022-08-05T03:41:56.113Z,70.74
2022-08-05T03:44:23.269Z,71.74
2022-08-05T03:46:51.333Z,72.23
2022-08-05T03:49:18.358Z,72.40
2022-08-05T03:52:50.308Z,72.54
2022-08-05T03:55:49.905Z,72.67
2022-08-05T03:57:41.598Z,72.21
2022-08-05T04:00:11.896Z,71.70
2022-08-05T04:02:57.992Z,71.42
2022-08-05T04:05:27.856Z,71.65
2022-08-05T04:07:58.008Z,71.84
2022-08-05T04:10:27.614Z,71.72
2022-08-05T04:12:54.872Z,71.79
2022-08-05T04:15:24.544Z,72.42
2022-08-05T04:17:56.160Z,73.37
2022-08-05T04:20:26.508Z,73.39
2022-08-05T04:22:53.045Z,73.49
2022-08-05T04:25:20.067Z,73.16
2022-08-05T04:28:11.114Z,72.33
2022-08-05T04:30:38.061Z,72.03
2022-08-05T04:33:07.656Z,72.23
2022-08-05T04:36:15.804Z,71.94
2022-08-05T04:38:20.763Z,72.70
2022-08-05T04:40:50.555Z,73.59
2022-08-05T04:43:17.994Z,73.46
2022-08-05T04:45:54.942Z,73.98
2022-08-05T04:48:28.140Z,74.00
2022-08-05T04:51:02.716Z,74.00
2022-08-05T04:53:38.762Z,72.70
2022-08-05T04:56:32.998Z,71.81
2022-08-05T04:58:53.050Z,70.72
2022-08-05T05:02:06.426Z,70.32
2022-08-05T05:04:08.624Z,70.44
2022-08-05T05:06:44.031Z,71.46
2022-08-05T05:09:13.316Z,71.55
2022-08-05T05:11:53.156Z,71.42
2022-08-05T05:14:31.247Z,70.85
2022-08-05T05:16:58.956Z,70.47
2022-08-05T05:19:36.139Z,71.02
2022-08-05T05:22:22.869Z,69.88
2022-08-05T05:24:56.788Z,68.86
2022-08-05T05:27:41.453Z,67.33
2022-08-05T05:30:29.881Z,68.36
2022-08-05T05:33:00.165Z,67.91
2022-08-05T05:35:34.430Z,66.99
2022-08-05T05:38:05.626Z,65.34
2022-08-05T05:40:35.682Z,65.24
2022-08-05T05:43:03.078Z,64.23
2022-08-05T05:45:29.746Z,62.29
2022-08-05T05:48:06.907Z,61.44
2022-08-05T05:50:43.928Z,60.14
2022-08-05T05:53:21.362Z,59.30
2022-08-05T05:55:52.451Z,59.93
2022-08-05T05:58:32.002Z,59.73
2022-08-05T06:01:04.934Z,58.04
2022-08-05T06:04:01.342Z,55.58
2022-08-05T06:06:30.785Z,53.91
2022-08-05T06:08:57.851Z,54.77
2022-08-05T06:11:24.452Z,53.57
2022-08-05T06:13:53.986Z,55.15
2022-08-05T06:16:29.921Z,56.02
2022-08-05T06:19:00.019Z,53.50
2022-08-05T06:21:36.039Z,52.44
2022-08-05T06:24:06.006Z,53.23
2022-08-05T06:26:35.073Z,51.97
2022-08-05T06:29:03.659Z,54.38
2022-08-05T06:31:33.769Z,52.66
2022-08-05T06:34:05.969Z,53.16
2022-08-05T06:36:53.459Z,52.30
2022-08-05T06:39:22.514Z,50.23
2022-08-05T06:41:53.583Z,47.97
2022-08-05T06:44:22.041Z,48.36
2022-08-05T06:46:51.119Z,47.39
2022-08-05T06:49:18.949Z,47.37
2022-08-05T06:51:49.321Z,47.99
2022-08-05T06:54:18.199Z,47.19
2022-08-05T06:56:54.735Z,47.08
2022-08-05T06:59:38.853Z,44.18
2022-08-05T07:02:09.106Z,42.62
2022-08-05T07:04:36.421Z,42.49
2022-08-05T07:07:07.952Z,42.32
2022-08-05T07:09:37.472Z,42.62
2022-08-05T07:12:08.746Z,41.76
2022-08-05T07:14:35.246Z,43.13
2022-08-05T07:18:02.278Z,42.56
2022-08-05T07:22:36.955Z,44.23
2022-08-05T07:25:23.720Z,44.78
2022-08-05T07:28:00.632Z,46.09
2022-08-05T07:30:32.462Z,46.19
2022-08-05T07:33:00.126Z,47.05
2022-08-05T07:36:03.086Z,47.97
2022-08-05T07:38:32.091Z,48.68
2022-08-05T07:41:16.533Z,48.92
2022-08-05T07:43:48.606Z,48.81
2022-08-05T07:46:20.762Z,49.00
2022-08-05T07:49:02.810Z,48.64
2022-08-05T07:51:37.269Z,48.95
2022-08-05T07:54:09.955Z,47.54
2022-08-05T07:57:00.380Z,46.89
2022-08-05T07:59:37.996Z,47.63
2022-08-05T08:02:15.847Z,46.73
2022-08-05T08:04:45.600Z,46.81
2022-08-05T08:07:12.518Z,47.16
2022-08-05T08:09:40.447Z,47.39
2022-08-05T08:12:16.516Z,47.25
2022-08-05T08:14:54.046Z,47.49
2022-08-05T08:17:21.441Z,47.40
2022-08-05T08:20:21.697Z,48.10
2022-08-05T08:22:35.784Z,48.35
2022-08-05T08:25:15.764Z,46.61
2022-08-05T08:27:47.973Z,46.37
2022-08-05T08:30:30.137Z,45.88
2022-08-05T08:33:08.446Z,44.76
2022-08-05T08:35:41.305Z,44.73
2022-08-05T08:38:08.493Z,44.02
2022-08-05T08:40:39.849Z,42.85
2022-08-05T08:45:20.047Z,42.52
2022-08-05T08:45:54.502Z,42.91
2022-08-05T08:48:43.005Z,41.95
2022-08-05T08:52:04.359Z,40.13
2022-08-05T08:53:55.381Z,39.98
2022-08-05T08:56:23.529Z,37.46
2022-08-05T08:58:53.888Z,36.54
2022-08-05T09:01:20.610Z,36.93
2022-08-05T09:03:54.498Z,35.68
2022-08-05T09:06:29.269Z,35.61
2022-08-05T09:08:58.457Z,35.53
2022-08-05T09:11:51.672Z,34.85
2022-08-05T09:14:58.095Z,34.69
2022-08-05T09:17:01.095Z,34.94
2022-08-05T09:19:36.830Z,34.65
2022-08-05T09:22:30.855Z,34.48
2022-08-05T09:24:59.169Z,33.30
2022-08-05T09:28:05.219Z,33.77
2022-08-05T09:30:23.307Z,33.85
2022-08-05T09:32:51.650Z,33.80
2022-08-05T09:35:26.473Z,33.64
2022-08-05T09:38:16.536Z,33.43
2022-08-05T09:40:44.625Z,34.13
2022-08-05T09:43:40.750Z,33.28
2022-08-05T09:46:27.708Z,33.49
2022-08-05T09:49:07.820Z,33.14
2022-08-05T09:51:42.769Z,33.01
2022-08-05T09:54:10.133Z,33.66
2022-08-05T09:56:38.483Z,33.25
2022-08-05T09:59:09.213Z,32.31
2022-08-05T10:01:45.724Z,32.08
2022-08-05T10:04:16.237Z,31.56
2022-08-05T10:06:58.847Z,31.55
2022-08-05T10:09:28.403Z,31.16
2022-08-05T10:12:30.392Z,31.48
2022-08-05T10:15:13.635Z,31.64
2022-08-05T10:17:47.174Z,31.24
2022-08-05T10:20:23.711Z,32.17
2022-08-05T10:22:52.503Z,32.56
2022-08-05T10:25:19.641Z,32.68
2022-08-05T10:28:13.310Z,32.49
2022-08-05T10:32:46.918Z,32.87
2022-08-05T10:33:23.949Z,33.16
2022-08-05T10:35:59.803Z,33.19
2022-08-05T10:38:27.817Z,32.84
2022-08-05T10:41:08.850Z,33.27
2022-08-05T10:43:47.666Z,32.63
2022-08-05T10:46:19.393Z,32.33
2022-08-05T10:48:58.032Z,32.75
2022-08-05T10:51:57.335Z,32.89
2022-08-05T10:54:47.190Z,31.86
2022-08-05T10:57:26.246Z,31.58
2022-08-05T11:00:13.245Z,31.00
2022-08-05T11:03:25.915Z,30.84
2022-08-05T11:06:05.157Z,32.68
2022-08-05T11:08:37.374Z,31.74
2022-08-05T11:11:44.647Z,32.18
2022-08-05T11:14:57.752Z,31.80
2022-08-05T11:17:57.948Z,31.93
2022-08-05T11:20:44.264Z,31.23
2022-08-05T11:23:33.413Z,31.18
2022-08-05T11:26:04.943Z,31.35
2022-08-05T11:28:43.348Z,31.00
2022-08-05T11:31:58.122Z,30.99
2022-08-05T11:34:14.880Z,30.25
2022-08-05T11:36:52.812Z,30.87
2022-08-05T11:39:50.329Z,31.30
2022-08-05T11:42:28.405Z,31.63
2022-08-05T11:45:02.147Z,30.89
2022-08-05T11:47:48.684Z,31.74
2022-08-05T11:50:16.896Z,31.46
2022-08-05T11:52:48.396Z,31.82
2022-08-05T11:55:16.239Z,31.08
2022-08-05T11:58:09.499Z,30.60
2022-08-05T12:00:32.552Z,31.72
2022-08-05T12:03:28.875Z,30.67
2022-08-05T12:05:59.394Z,30.45
2022-08-05T12:08:27.907Z,29.93
2022-08-05T12:10:59.190Z,30.05
2022-08-05T12:13:49.111Z,29.96
2022-08-05T12:16:18.745Z,29.45
2022-08-05T12:18:52.696Z,29.78
2022-08-05T12:21:23.587Z,30.22
2022-08-05T12:24:00.204Z,30.08
2022-08-05T12:26:32.415Z,30.98
2022-08-05T12:28:59.695Z,30.13
2022-08-05T12:31:33.499Z,30.08
2022-08-05T12:34:14.633Z,30.31
2022-08-05T12:36:48.115Z,31.28
2022-08-05T12:39:16.382Z,30.46
2022-08-05T12:41:43.711Z,30.63
2022-08-05T12:44:14.176Z,30.87
2022-08-05T12:46:45.519Z,30.44
2022-08-05T12:49:14.223Z,29.50
2022-08-05T12:52:13.677Z,30.40
2022-08-05T12:54:33.386Z,30.77
2022-08-05T12:57:02.515Z,30.34
2022-08-05T13:00:08.741Z,29.85
2022-08-05T13:02:21.743Z,29.28
2022-08-05T13:04:55.202Z,30.51
2022-08-05T13:07:54.723Z,30.30
2022-08-05T13:10:13.365Z,28.68
2022-08-05T13:12:50.707Z,27.79
2022-08-05T13:15:24.551Z,29.47
2022-08-05T13:18:05.382Z,29.78
2022-08-05T13:20:35.239Z,28.72
2022-08-05T13:23:07.411Z,28.99
2022-08-05T13:25:52.301Z,28.54
2022-08-05T13:28:22.046Z,30.08
2022-08-05T13:30:49.022Z,28.18
2022-08-05T13:34:21.307Z,28.61
2022-08-05T13:36:06.380Z,29.14
2022-08-05T13:38:36.253Z,28.71
2022-08-05T13:41:06.623Z,29.33
2022-08-05T13:43:45.890Z,28.50
2022-08-05T13:46:30.739Z,28.44
2022-08-05T13:49:04.704Z,29.36
2022-08-05T13:51:40.888Z,27.68
2022-08-05T13:54:11.836Z,27.77
2022-08-05T13:56:50.996Z,28.75
2022-08-05T13:59:21.459Z,28.11
2022-08-05T14:01:58.337Z,27.96
2022-08-05T14:04:27.544Z,29.08
2022-08-05T14:07:11.827Z,27.61
2022-08-05T14:09:42.921Z,27.62
2022-08-05T14:12:17.720Z,27.66
2022-08-05T14:14:58.640Z,27.17
2022-08-05T14:17:25.254Z,26.51
2022-08-05T14:19:56.939Z,27.20
2022-08-05T14:22:30.293Z,26.80
2022-08-05T14:24:57.257Z,28.19
2022-08-05T14:27:28.376Z,28.19
2022-08-05T14:29:55.042Z,26.89
2022-08-05T14:32:27.228Z,26.99
2022-08-05T14:34:56.728Z,28.48
2022-08-05T14:37:23.654Z,28.21
2022-08-05T14:40:14.180Z,28.23
2022-08-05T14:42:44.591Z,27.29
2022-08-05T14:45:12.088Z,27.34
2022-08-05T14:48:05.536Z,27.90
2022-08-05T14:50:25.504Z,27.78
2022-08-05T14:52:56.906Z,27.58
2022-08-05T14:55:26.140Z,28.00
2022-08-05T14:58:10.802Z,28.01
2022-08-05T15:00:39.644Z,27.00
2022-08-05T15:03:26.304Z,27.30
2022-08-05T15:06:13.502Z,28.13
2022-08-05T15:08:59.777Z,27.85
2022-08-05T15:11:53.286Z,28.44
2022-08-05T15:14:33.641Z,28.83
2022-08-05T15:17:00.819Z,27.91
2022-08-05T15:19:27.623Z,28.01
2022-08-05T15:21:54.488Z,28.03
2022-08-05T15:24:26.623Z,27.94
2022-08-05T15:26:53.265Z,28.68
2022-08-05T15:29:23.871Z,28.49
2022-08-05T15:31:57.044Z,28.89
2022-08-05T15:34:31.927Z,27.62
2022-08-05T15:37:03.480Z,28.40
2022-08-05T15:40:58.245Z,28.33
2022-08-05T15:42:49.973Z,27.96
2022-08-05T15:45:09.737Z,28.42
2022-08-05T15:47:36.622Z,27.22
2022-08-05T15:50:03.970Z,28.04
2022-08-05T15:52:54.733Z,27.82
2022-08-05T15:55:17.585Z,27.94
2022-08-05T15:57:45.705Z,28.23
2022-08-05T16:00:26.199Z,26.79
2022-08-05T16:02:59.451Z,26.19
2022-08-05T16:05:28.326Z,26.75
2022-08-05T16:07:55.189Z,26.41
2022-08-05T16:10:25.472Z,27.49
2022-08-05T16:12:53.479Z,27.10
2022-08-05T16:15:24.298Z,28.36
2022-08-05T16:17:59.166Z,28.46
2022-08-05T16:20:25.850Z,28.64
2022-08-05T16:22:54.690Z,28.47
2022-08-05T16:25:21.260Z,28.16
2022-08-05T16:28:05.247Z,28.58
2022-08-05T16:30:34.299Z,28.17
2022-08-05T16:33:03.031Z,28.02
2022-08-05T16:35:33.588Z,28.54
2022-08-05T16:38:23.877Z,27.83
2022-08-05T16:40:55.368Z,28.18
2022-08-05T16:43:28.492Z,28.16
2022-08-05T16:46:05.379Z,28.19
2022-08-05T16:48:36.633Z,27.99
2022-08-05T16:51:08.815Z,27.50
2022-08-05T16:54:02.777Z,28.42
2022-08-05T16:56:23.711Z,27.87
2022-08-05T16:58:50.560Z,29.00
2022-08-05T17:01:19.191Z,27.95
2022-08-05T17:03:46.269Z,27.61
2022-08-05T17:06:13.296Z,28.10
2022-08-05T17:08:52.268Z,27.89
2022-08-05T17:11:23.794Z,27.88
2022-08-05T17:13:51.660Z,28.02
2022-08-05T17:16:32.636Z,28.16
2022-08-05T17:19:00.403Z,28.78
2022-08-05T17:21:35.579Z,28.50
2022-08-05T17:24:19.368Z,28.98
2022-08-05T17:26:50.481Z,30.15
2022-08-05T17:29:17.291Z,29.07
2022-08-05T17:31:59.000Z,32.60
2022-08-05T17:34:29.518Z,32.79
2022-08-05T17:36:56.884Z,33.45
2022-08-05T17:39:24.474Z,33.97
2022-08-05T17:42:19.767Z,32.97
2022-08-05T17:44:50.056Z,35.65
2022-08-05T17:47:22.038Z,34.98
2022-08-05T17:50:00.030Z,35.76
2022-08-05T17:52:31.361Z,36.87
2022-08-05T17:54:57.996Z,36.52
2022-08-05T17:57:24.704Z,36.53
2022-08-05T18:00:03.822Z,37.39
2022-08-05T18:02:33.292Z,38.08
2022-08-05T18:05:01.126Z,38.38
2022-08-05T18:07:32.974Z,38.49
2022-08-05T18:10:10.417Z,39.05
2022-08-05T18:12:37.584Z,38.13
2022-08-05T18:15:05.094Z,39.28
2022-08-05T18:17:58.813Z,38.88
2022-08-05T18:20:29.570Z,39.35
2022-08-05T18:22:58.460Z,39.46
2022-08-05T18:25:33.132Z,39.50
2022-08-05T18:28:01.655Z,39.75
2022-08-05T18:30:31.659Z,40.58
2022-08-05T18:33:00.290Z,42.25
2022-08-05T18:35:49.351Z,42.56
2022-08-05T18:38:16.972Z,42.31
2022-08-05T18:41:55.810Z,42.44
2022-08-05T18:43:38.276Z,43.14
2022-08-05T18:46:09.692Z,42.87
2022-08-05T18:48:41.731Z,43.88
2022-08-05T18:52:04.715Z,44.34
2022-08-05T18:53:55.266Z,45.11
2022-08-05T18:56:25.301Z,44.74
2022-08-05T18:58:54.781Z,42.88
2022-08-05T19:01:47.251Z,42.64
2022-08-05T19:04:24.302Z,43.21
2022-08-05T19:06:51.030Z,44.90
2022-08-05T19:09:17.620Z,45.09
2022-08-05T19:12:01.117Z,40.04
2022-08-05T19:14:52.419Z,39.69
2022-08-05T19:17:15.074Z,38.88
2022-08-05T19:19:44.170Z,38.99
2022-08-05T19:22:17.275Z,38.88
2022-08-05T19:24:54.462Z,39.07
2022-08-05T19:27:23.740Z,38.97
2022-08-05T19:29:50.532Z,39.52
2022-08-05T19:32:17.443Z,39.37
2022-08-05T19:34:55.128Z,39.37
2022-08-05T19:37:22.372Z,39.83
2022-08-05T19:39:57.256Z,39.86
2022-08-05T19:42:36.123Z,40.37
2022-08-05T19:45:05.692Z,40.32
2022-08-05T19:47:33.019Z,41.16
2022-08-05T19:50:02.038Z,41.39
2022-08-05T19:52:40.311Z,41.75
2022-08-05T19:56:12.585Z,41.59
2022-08-05T19:58:06.775Z,42.07
2022-08-05T20:00:41.534Z,42.44
2022-08-05T20:03:09.238Z,43.13
2022-08-05T20:05:49.913Z,43.64
2022-08-05T20:08:17.348Z,42.86
2022-08-05T20:10:43.948Z,43.11
2022-08-05T20:13:10.563Z,43.75
2022-08-05T20:15:51.904Z,43.40
2022-08-05T20:18:33.779Z,43.70
2022-08-05T20:21:05.147Z,43.70
2022-08-05T20:23:39.182Z,43.76
2022-08-05T20:26:17.612Z,44.32
2022-08-05T20:28:45.096Z,44.33
2022-08-05T20:31:11.906Z,44.28
2022-08-05T20:33:38.502Z,44.62
2022-08-05T20:36:11.124Z,44.77
2022-08-05T20:38:37.983Z,45.50
2022-08-05T20:41:08.081Z,45.32
2022-08-05T20:43:58.968Z,45.55
2022-08-05T20:46:25.204Z,45.27
2022-08-05T20:48:52.148Z,45.20
2022-08-05T20:51:20.087Z,45.23
2022-08-05T20:53:56.433Z,45.39
2022-08-05T20:56:28.946Z,45.54
2022-08-05T20:58:56.763Z,45.66
2022-08-05T21:01:38.577Z,45.69
2022-08-05T21:04:05.648Z,45.60
2022-08-05T21:06:33.595Z,45.57
2022-08-05T21:09:00.332Z,46.27
2022-08-05T21:12:07.186Z,46.65
2022-08-05T21:14:13.722Z,46.61
2022-08-05T21:16:41.077Z,46.81
2022-08-05T21:19:07.791Z,46.98
2022-08-05T21:21:43.665Z,47.44
2022-08-05T21:24:16.998Z,47.52
2022-08-05T21:26:58.485Z,47.60
2022-08-05T21:29:26.564Z,48.01
2022-08-05T21:31:58.160Z,48.40
2022-08-05T21:34:24.758Z,48.38
2022-08-05T21:36:52.673Z,48.65
2022-08-05T21:39:27.014Z,49.09
2022-08-05T21:42:01.994Z,49.83
2022-08-05T21:44:29.118Z,50.85
2022-08-05T21:46:58.182Z,51.40
2022-08-05T21:50:00.164Z,52.50
2022-08-05T21:52:22.259Z,53.03
2022-08-05T21:54:55.129Z,53.57
2022-08-05T21:57:31.641Z,54.10
2022-08-05T22:00:05.488Z,54.29
2022-08-05T22:02:33.289Z,54.04
2022-08-05T22:05:00.220Z,54.50
2022-08-05T22:07:54.155Z,55.25
2022-08-05T22:10:15.881Z,55.56
2022-08-05T22:12:44.717Z,56.70
2022-08-05T22:16:01.585Z,57.20
2022-08-05T22:18:04.448Z,57.45
2022-08-05T22:20:31.176Z,57.48
2022-08-05T22:22:59.994Z,57.93
2022-08-05T22:26:09.246Z,58.37
2022-08-05T22:28:13.185Z,58.44
2022-08-05T22:30:55.391Z,58.59
2022-08-05T22:33:56.523Z,59.15
2022-08-05T22:36:11.351Z,59.54
2022-08-05T22:38:43.411Z,61.80
2022-08-05T22:41:15.057Z,62.17
2022-08-05T22:43:41.709Z,62.65
2022-08-05T22:46:13.192Z,64.43
2022-08-05T22:48:40.281Z,65.23
2022-08-05T22:51:07.646Z,66.23
2022-08-05T22:53:35.827Z,66.50
2022-08-05T22:56:04.928Z,68.06
2022-08-05T22:58:36.633Z,67.62
2022-08-05T23:01:03.256Z,67.19
2022-08-05T23:03:57.738Z,68.63
2022-08-05T23:06:19.111Z,69.29
2022-08-05T23:08:45.746Z,69.05
2022-08-05T23:11:20.176Z,70.05
2022-08-05T23:13:51.596Z,70.96
2022-08-05T23:16:26.192Z,71.71
2022-08-05T23:19:00.236Z,72.01
2022-08-05T23:21:43.144Z,72.97
2022-08-05T23:24:15.134Z,72.31
2022-08-05T23:26:44.150Z,72.25
2022-08-05T23:29:15.765Z,71.99
2022-08-05T23:31:42.508Z,73.72
2022-08-05T23:34:09.074Z,73.65
2022-08-05T23:36:38.389Z,73.66
2022-08-05T23:39:07.256Z,73.08
2022-08-05T23:41:34.228Z,72.34
2022-08-05T23:44:08.995Z,71.56
2022-08-05T23:46:37.452Z,72.47
2022-08-05T23:49:15.983Z,69.91
2022-08-05T23:51:42.954Z,68.72
2022-08-05T23:54:25.261Z,69.96
2022-08-05T23:56:52.889Z,70.50
2022-08-05T23:59:20.834Z,69.16
